sensor_id;sensor_type;location;lat;lon;timestamp;P1;durP1;ratioP1;P2;durP2;ratioP2
21301;SDS011;10810;48.270;9.996;2022-12-18T00:02:15;33.97;;;11.03;;
21301;SDS011;10810;48.270;9.996;2022-12-18T00:04:52;44.60;;;12.07;;
21301;SDS011;10810;48.270;9.996;2022-12-18T00:09:15;32.53;;;10.83;;
21301;SDS011;10810;48.270;9.996;2022-12-18T00:10:24;42.63;;;10.67;;
21301;SDS011;10810;48.270;9.996;2022-12-18T00:16:06;30.00;;;9.97;;
21301;SDS011;10810;48.270;9.996;2022-12-18T00:20:32;26.93;;;8.47;;
21301;SDS011;10810;48.270;9.996;2022-12-18T00:22:14;23.63;;;9.87;;
21301;SDS011;10810;48.270;9.996;2022-12-18T00:24:55;28.13;;;9.60;;
21301;SDS011;10810;48.270;9.996;2022-12-18T00:27:44;32.60;;;8.90;;
21301;SDS011;10810;48.270;9.996;2022-12-18T00:33:39;32.70;;;8.70;;
21301;SDS011;10810;48.270;9.996;2022-12-18T00:36:26;24.20;;;8.87;;
21301;SDS011;10810;48.270;9.996;2022-12-18T00:39:09;30.90;;;9.80;;
21301;SDS011;10810;48.270;9.996;2022-12-18T00:42:37;23.30;;;9.57;;
21301;SDS011;10810;48.270;9.996;2022-12-18T00:47:08;31.83;;;9.33;;
21301;SDS011;10810;48.270;9.996;2022-12-18T00:48:41;30.13;;;9.87;;
21301;SDS011;10810;48.270;9.996;2022-12-18T00:51:39;28.77;;;10.30;;
21301;SDS011;10810;48.270;9.996;2022-12-18T00:54:14;32.37;;;9.67;;
21301;SDS011;10810;48.270;9.996;2022-12-18T01:00:17;30.07;;;8.73;;
21301;SDS011;10810;48.270;9.996;2022-12-18T01:03:25;27.40;;;9.50;;
21301;SDS011;10810;48.270;9.996;2022-12-18T01:06:25;29.00;;;9.27;;
21301;SDS011;10810;48.270;9.996;2022-12-18T01:09:13;25.97;;;8.90;;
21301;SDS011;10810;48.270;9.996;2022-12-18T01:11:42;31.17;;;9.13;;
21301;SDS011;10810;48.270;9.996;2022-12-18T01:14:17;33.90;;;9.60;;
21301;SDS011;10810;48.270;9.996;2022-12-18T01:17:15;29.10;;;8.93;;
21301;SDS011;10810;48.270;9.996;2022-12-18T01:19:58;32.37;;;9.63;;
21301;SDS011;10810;48.270;9.996;2022-12-18T01:22:48;26.57;;;9.17;;
21301;SDS011;10810;48.270;9.996;2022-12-18T01:25:17;23.13;;;8.47;;
21301;SDS011;10810;48.270;9.996;2022-12-18T01:27:51;27.93;;;8.60;;
21301;SDS011;10810;48.270;9.996;2022-12-18T01:31:34;23.97;;;9.37;;
21301;SDS011;10810;48.270;9.996;2022-12-18T01:34:24;32.40;;;9.97;;
21301;SDS011;10810;48.270;9.996;2022-12-18T01:37:05;37.47;;;10.27;;
21301;SDS011;10810;48.270;9.996;2022-12-18T01:40:00;23.80;;;8.87;;
21301;SDS011;10810;48.270;9.996;2022-12-18T01:46:45;31.67;;;8.70;;
21301;SDS011;10810;48.270;9.996;2022-12-18T01:49:49;41.50;;;9.33;;
21301;SDS011;10810;48.270;9.996;2022-12-18T01:52:33;33.53;;;9.63;;
21301;SDS011;10810;48.270;9.996;2022-12-18T01:55:52;29.93;;;9.53;;
21301;SDS011;10810;48.270;9.996;2022-12-18T01:58:45;33.47;;;9.93;;
21301;SDS011;10810;48.270;9.996;2022-12-18T02:02:09;26.93;;;9.13;;
21301;SDS011;10810;48.270;9.996;2022-12-18T02:04:51;32.87;;;9.20;;
21301;SDS011;10810;48.270;9.996;2022-12-18T02:13:54;33.27;;;9.77;;
21301;SDS011;10810;48.270;9.996;2022-12-18T02:16:43;34.70;;;11.17;;
21301;SDS011;10810;48.270;9.996;2022-12-18T02:19:24;29.70;;;8.63;;
21301;SDS011;10810;48.270;9.996;2022-12-18T02:22:38;36.17;;;8.33;;
21301;SDS011;10810;48.270;9.996;2022-12-18T02:32:17;25.90;;;7.93;;
21301;SDS011;10810;48.270;9.996;2022-12-18T02:35:04;35.83;;;10.40;;
21301;SDS011;10810;48.270;9.996;2022-12-18T02:38:01;25.80;;;8.23;;
21301;SDS011;10810;48.270;9.996;2022-12-18T02:43:45;36.57;;;9.80;;
21301;SDS011;10810;48.270;9.996;2022-12-18T02:46:46;27.13;;;9.27;;
21301;SDS011;10810;48.270;9.996;2022-12-18T02:49:34;36.80;;;10.50;;
21301;SDS011;10810;48.270;9.996;2022-12-18T02:59:28;29.97;;;7.80;;
21301;SDS011;10810;48.270;9.996;2022-12-18T03:02:16;28.07;;;10.40;;
21301;SDS011;10810;48.270;9.996;2022-12-18T03:04:58;25.47;;;7.97;;
21301;SDS011;10810;48.270;9.996;2022-12-18T03:27:17;33.43;;;9.73;;
21301;SDS011;10810;48.270;9.996;2022-12-18T03:30:18;28.47;;;9.50;;
21301;SDS011;10810;48.270;9.996;2022-12-18T03:32:52;26.80;;;8.80;;
21301;SDS011;10810;48.270;9.996;2022-12-18T03:35:58;32.63;;;9.90;;
21301;SDS011;10810;48.270;9.996;2022-12-18T03:39:41;30.97;;;9.90;;
21301;SDS011;10810;48.270;9.996;2022-12-18T03:42:01;26.63;;;8.10;;
21301;SDS011;10810;48.270;9.996;2022-12-18T03:45:17;31.27;;;9.07;;
21301;SDS011;10810;48.270;9.996;2022-12-18T03:48:24;26.93;;;8.63;;
21301;SDS011;10810;48.270;9.996;2022-12-18T03:51:28;27.67;;;8.77;;
21301;SDS011;10810;48.270;9.996;2022-12-18T03:54:21;28.53;;;9.57;;
21301;SDS011;10810;48.270;9.996;2022-12-18T03:57:00;22.43;;;8.23;;
21301;SDS011;10810;48.270;9.996;2022-12-18T03:59:48;30.77;;;9.50;;
21301;SDS011;10810;48.270;9.996;2022-12-18T04:06:18;25.00;;;7.93;;
21301;SDS011;10810;48.270;9.996;2022-12-18T04:08:48;29.57;;;10.03;;
21301;SDS011;10810;48.270;9.996;2022-12-18T04:11:26;29.33;;;9.83;;
21301;SDS011;10810;48.270;9.996;2022-12-18T04:14:45;37.07;;;8.80;;
21301;SDS011;10810;48.270;9.996;2022-12-18T04:17:37;26.20;;;7.50;;
21301;SDS011;10810;48.270;9.996;2022-12-18T04:20:47;30.93;;;9.70;;
21301;SDS011;10810;48.270;9.996;2022-12-18T04:26:30;31.60;;;9.90;;
21301;SDS011;10810;48.270;9.996;2022-12-18T04:39:16;25.73;;;8.97;;
21301;SDS011;10810;48.270;9.996;2022-12-18T04:42:17;36.53;;;9.03;;
21301;SDS011;10810;48.270;9.996;2022-12-18T04:45:32;27.93;;;9.07;;
21301;SDS011;10810;48.270;9.996;2022-12-18T04:48:05;30.00;;;8.50;;
21301;SDS011;10810;48.270;9.996;2022-12-18T04:50:52;35.30;;;8.47;;
21301;SDS011;10810;48.270;9.996;2022-12-18T04:53:50;23.83;;;8.47;;
21301;SDS011;10810;48.270;9.996;2022-12-18T05:20:15;27.00;;;8.77;;
21301;SDS011;10810;48.270;9.996;2022-12-18T05:21:54;32.03;;;8.20;;
21301;SDS011;10810;48.270;9.996;2022-12-18T05:26:05;29.27;;;8.40;;
21301;SDS011;10810;48.270;9.996;2022-12-18T05:27:33;33.70;;;9.33;;
21301;SDS011;10810;48.270;9.996;2022-12-18T05:30:28;35.10;;;9.43;;
21301;SDS011;10810;48.270;9.996;2022-12-18T05:35:59;29.67;;;9.33;;
21301;SDS011;10810;48.270;9.996;2022-12-18T05:38:51;28.47;;;9.47;;
21301;SDS011;10810;48.270;9.996;2022-12-18T05:42:00;24.77;;;8.40;;
21301;SDS011;10810;48.270;9.996;2022-12-18T05:44:52;23.53;;;7.63;;
21301;SDS011;10810;48.270;9.996;2022-12-18T05:47:23;26.33;;;8.77;;
21301;SDS011;10810;48.270;9.996;2022-12-18T05:50:00;38.30;;;9.30;;
21301;SDS011;10810;48.270;9.996;2022-12-18T05:52:33;25.00;;;8.67;;
21301;SDS011;10810;48.270;9.996;2022-12-18T05:55:16;23.80;;;7.80;;
21301;SDS011;10810;48.270;9.996;2022-12-18T05:57:52;32.07;;;8.90;;
21301;SDS011;10810;48.270;9.996;2022-12-18T06:00:36;24.90;;;8.07;;
21301;SDS011;10810;48.270;9.996;2022-12-18T06:03:35;30.03;;;7.80;;
21301;SDS011;10810;48.270;9.996;2022-12-18T06:06:18;30.37;;;8.13;;
21301;SDS011;10810;48.270;9.996;2022-12-18T06:08:52;22.77;;;8.13;;
21301;SDS011;10810;48.270;9.996;2022-12-18T06:11:28;26.43;;;8.73;;
21301;SDS011;10810;48.270;9.996;2022-12-18T06:13:56;28.53;;;8.03;;
21301;SDS011;10810;48.270;9.996;2022-12-18T06:16:26;23.77;;;8.17;;
21301;SDS011;10810;48.270;9.996;2022-12-18T06:22:30;23.97;;;7.87;;
21301;SDS011;10810;48.270;9.996;2022-12-18T06:28:45;23.20;;;8.17;;
21301;SDS011;10810;48.270;9.996;2022-12-18T06:31:13;38.40;;;8.83;;
21301;SDS011;10810;48.270;9.996;2022-12-18T06:36:54;29.67;;;9.17;;
21301;SDS011;10810;48.270;9.996;2022-12-18T06:42:30;28.00;;;7.53;;
21301;SDS011;10810;48.270;9.996;2022-12-18T06:48:19;26.90;;;8.20;;
21301;SDS011;10810;48.270;9.996;2022-12-18T06:50:49;33.13;;;7.67;;
21301;SDS011;10810;48.270;9.996;2022-12-18T06:54:00;30.33;;;7.87;;
21301;SDS011;10810;48.270;9.996;2022-12-18T06:56:38;24.67;;;7.93;;
21301;SDS011;10810;48.270;9.996;2022-12-18T06:59:30;22.63;;;7.77;;
21301;SDS011;10810;48.270;9.996;2022-12-18T07:02:10;24.90;;;7.83;;
21301;SDS011;10810;48.270;9.996;2022-12-18T07:04:50;22.13;;;6.80;;
21301;SDS011;10810;48.270;9.996;2022-12-18T07:07:31;30.13;;;8.00;;
21301;SDS011;10810;48.270;9.996;2022-12-18T07:10:14;27.00;;;8.37;;
21301;SDS011;10810;48.270;9.996;2022-12-18T07:12:58;24.40;;;8.27;;
21301;SDS011;10810;48.270;9.996;2022-12-18T07:15:43;27.33;;;7.83;;
21301;SDS011;10810;48.270;9.996;2022-12-18T07:18:14;28.97;;;9.60;;
21301;SDS011;10810;48.270;9.996;2022-12-18T07:20:43;27.77;;;7.77;;
21301;SDS011;10810;48.270;9.996;2022-12-18T07:23:16;32.93;;;8.07;;
21301;SDS011;10810;48.270;9.996;2022-12-18T07:26:19;28.03;;;9.03;;
21301;SDS011;10810;48.270;9.996;2022-12-18T07:29:12;25.37;;;8.00;;
21301;SDS011;10810;48.270;9.996;2022-12-18T07:31:53;31.70;;;7.77;;
21301;SDS011;10810;48.270;9.996;2022-12-18T07:34:39;30.33;;;8.87;;
21301;SDS011;10810;48.270;9.996;2022-12-18T07:37:20;26.77;;;8.87;;
21301;SDS011;10810;48.270;9.996;2022-12-18T07:40:06;27.37;;;8.13;;
21301;SDS011;10810;48.270;9.996;2022-12-18T07:42:57;22.90;;;7.80;;
21301;SDS011;10810;48.270;9.996;2022-12-18T07:45:40;25.70;;;9.17;;
21301;SDS011;10810;48.270;9.996;2022-12-18T07:48:35;26.80;;;8.13;;
21301;SDS011;10810;48.270;9.996;2022-12-18T07:51:20;24.33;;;7.60;;
21301;SDS011;10810;48.270;9.996;2022-12-18T07:54:00;29.63;;;7.60;;
21301;SDS011;10810;48.270;9.996;2022-12-18T07:56:39;20.40;;;7.40;;
21301;SDS011;10810;48.270;9.996;2022-12-18T07:59:17;23.73;;;7.53;;
21301;SDS011;10810;48.270;9.996;2022-12-18T08:01:53;26.10;;;6.47;;
21301;SDS011;10810;48.270;9.996;2022-12-18T08:04:37;18.67;;;6.53;;
21301;SDS011;10810;48.270;9.996;2022-12-18T08:07:34;25.30;;;7.33;;
21301;SDS011;10810;48.270;9.996;2022-12-18T08:10:25;18.33;;;6.23;;
21301;SDS011;10810;48.270;9.996;2022-12-18T08:13:15;23.67;;;7.10;;
21301;SDS011;10810;48.270;9.996;2022-12-18T08:16:10;15.37;;;5.40;;
21301;SDS011;10810;48.270;9.996;2022-12-18T08:18:39;17.47;;;6.20;;
21301;SDS011;10810;48.270;9.996;2022-12-18T08:21:09;20.77;;;5.60;;
21301;SDS011;10810;48.270;9.996;2022-12-18T08:54:01;15.37;;;5.40;;
21301;SDS011;10810;48.270;9.996;2022-12-18T08:56:30;16.13;;;6.00;;
21301;SDS011;10810;48.270;9.996;2022-12-18T08:59:03;14.73;;;5.60;;
21301;SDS011;10810;48.270;9.996;2022-12-18T09:01:45;24.13;;;6.00;;
21301;SDS011;10810;48.270;9.996;2022-12-18T09:04:27;16.93;;;6.00;;
21301;SDS011;10810;48.270;9.996;2022-12-18T09:07:06;13.53;;;5.00;;
21301;SDS011;10810;48.270;9.996;2022-12-18T09:09:47;13.37;;;4.63;;
21301;SDS011;10810;48.270;9.996;2022-12-18T09:12:17;20.27;;;5.43;;
21301;SDS011;10810;48.270;9.996;2022-12-18T09:14:49;11.70;;;5.33;;
21301;SDS011;10810;48.270;9.996;2022-12-18T09:17:57;18.37;;;6.57;;
21301;SDS011;10810;48.270;9.996;2022-12-18T09:20:49;14.03;;;5.40;;
21301;SDS011;10810;48.270;9.996;2022-12-18T09:23:39;10.07;;;4.40;;
21301;SDS011;10810;48.270;9.996;2022-12-18T09:26:24;16.30;;;5.10;;
21301;SDS011;10810;48.270;9.996;2022-12-18T09:30:47;13.87;;;5.10;;
21301;SDS011;10810;48.270;9.996;2022-12-18T09:32:30;15.80;;;5.77;;
21301;SDS011;10810;48.270;9.996;2022-12-18T09:35:09;17.47;;;5.77;;
21301;SDS011;10810;48.270;9.996;2022-12-18T09:38:04;8.83;;;4.33;;
21301;SDS011;10810;48.270;9.996;2022-12-18T09:41:05;15.90;;;4.83;;
21301;SDS011;10810;48.270;9.996;2022-12-18T09:43:58;15.47;;;5.83;;
21301;SDS011;10810;48.270;9.996;2022-12-18T09:46:53;13.93;;;6.07;;
21301;SDS011;10810;48.270;9.996;2022-12-18T09:49:49;15.27;;;5.33;;
21301;SDS011;10810;48.270;9.996;2022-12-18T09:52:42;13.20;;;5.13;;
21301;SDS011;10810;48.270;9.996;2022-12-18T09:55:38;9.73;;;4.60;;
21301;SDS011;10810;48.270;9.996;2022-12-18T09:58:16;12.67;;;5.80;;
21301;SDS011;10810;48.270;9.996;2022-12-18T10:01:20;13.17;;;5.07;;
21301;SDS011;10810;48.270;9.996;2022-12-18T10:05:15;18.60;;;5.20;;
21301;SDS011;10810;48.270;9.996;2022-12-18T10:07:21;11.13;;;4.57;;
21301;SDS011;10810;48.270;9.996;2022-12-18T10:10:21;14.67;;;4.83;;
21301;SDS011;10810;48.270;9.996;2022-12-18T10:13:01;18.93;;;5.20;;
21301;SDS011;10810;48.270;9.996;2022-12-18T10:16:07;14.47;;;4.97;;
21301;SDS011;10810;48.270;9.996;2022-12-18T10:18:57;16.63;;;5.97;;
21301;SDS011;10810;48.270;9.996;2022-12-18T10:22:14;13.13;;;4.80;;
21301;SDS011;10810;48.270;9.996;2022-12-18T10:25:19;13.57;;;4.23;;
21301;SDS011;10810;48.270;9.996;2022-12-18T10:28:12;11.17;;;4.40;;
21301;SDS011;10810;48.270;9.996;2022-12-18T10:30:53;18.80;;;4.47;;
21301;SDS011;10810;48.270;9.996;2022-12-18T10:40:14;7.57;;;2.97;;
21301;SDS011;10810;48.270;9.996;2022-12-18T10:43:20;15.87;;;4.57;;
21301;SDS011;10810;48.270;9.996;2022-12-18T10:47:21;17.67;;;5.33;;
21301;SDS011;10810;48.270;9.996;2022-12-18T11:51:33;14.30;;;3.93;;
21301;SDS011;10810;48.270;9.996;2022-12-18T11:54:09;12.03;;;3.93;;
21301;SDS011;10810;48.270;9.996;2022-12-18T11:57:00;12.53;;;4.90;;
21301;SDS011;10810;48.270;9.996;2022-12-18T11:59:42;14.60;;;5.20;;
21301;SDS011;10810;48.270;9.996;2022-12-18T12:02:28;16.27;;;5.13;;
21301;SDS011;10810;48.270;9.996;2022-12-18T12:06:13;16.13;;;4.93;;
21301;SDS011;10810;48.270;9.996;2022-12-18T12:26:03;10.63;;;4.63;;
21301;SDS011;10810;48.270;9.996;2022-12-18T12:29:39;12.90;;;5.37;;
21301;SDS011;10810;48.270;9.996;2022-12-18T12:38:17;9.77;;;4.07;;
21301;SDS011;10810;48.270;9.996;2022-12-18T12:48:47;12.83;;;4.53;;
21301;SDS011;10810;48.270;9.996;2022-12-18T12:51:14;12.57;;;4.10;;
21301;SDS011;10810;48.270;9.996;2022-12-18T12:54:34;13.57;;;4.40;;
21301;SDS011;10810;48.270;9.996;2022-12-18T13:00:57;13.80;;;4.60;;
21301;SDS011;10810;48.270;9.996;2022-12-18T13:04:00;9.00;;;3.87;;
21301;SDS011;10810;48.270;9.996;2022-12-18T13:07:10;11.93;;;4.03;;
21301;SDS011;10810;48.270;9.996;2022-12-18T13:14:02;16.30;;;4.47;;
21301;SDS011;10810;48.270;9.996;2022-12-18T13:23:55;10.93;;;3.77;;
21301;SDS011;10810;48.270;9.996;2022-12-18T13:34:14;14.17;;;4.70;;
21301;SDS011;10810;48.270;9.996;2022-12-18T13:47:38;14.07;;;4.60;;
21301;SDS011;10810;48.270;9.996;2022-12-18T13:50:39;13.97;;;4.87;;
21301;SDS011;10810;48.270;9.996;2022-12-18T13:53:56;24.27;;;4.60;;
21301;SDS011;10810;48.270;9.996;2022-12-18T14:07:20;12.37;;;5.47;;
21301;SDS011;10810;48.270;9.996;2022-12-18T14:26:02;17.07;;;5.47;;
21301;SDS011;10810;48.270;9.996;2022-12-18T14:32:30;13.13;;;4.63;;
21301;SDS011;10810;48.270;9.996;2022-12-18T14:36:39;16.47;;;4.70;;
21301;SDS011;10810;48.270;9.996;2022-12-18T14:38:51;16.33;;;3.97;;
21301;SDS011;10810;48.270;9.996;2022-12-18T14:42:10;14.13;;;5.43;;
21301;SDS011;10810;48.270;9.996;2022-12-18T14:46:39;14.63;;;4.97;;
21301;SDS011;10810;48.270;9.996;2022-12-18T14:49:17;13.77;;;4.80;;
21301;SDS011;10810;48.270;9.996;2022-12-18T14:52:18;13.53;;;4.90;;
21301;SDS011;10810;48.270;9.996;2022-12-18T14:58:53;12.47;;;5.03;;
21301;SDS011;10810;48.270;9.996;2022-12-18T15:01:38;14.83;;;4.67;;
21301;SDS011;10810;48.270;9.996;2022-12-18T15:05:28;13.07;;;4.57;;
21301;SDS011;10810;48.270;9.996;2022-12-18T15:11:00;11.30;;;4.03;;
21301;SDS011;10810;48.270;9.996;2022-12-18T15:13:49;16.67;;;4.17;;
21301;SDS011;10810;48.270;9.996;2022-12-18T15:26:12;13.50;;;4.50;;
21301;SDS011;10810;48.270;9.996;2022-12-18T15:29:15;11.87;;;5.60;;
21301;SDS011;10810;48.270;9.996;2022-12-18T15:32:25;20.90;;;5.87;;
21301;SDS011;10810;48.270;9.996;2022-12-18T15:38:32;12.73;;;3.63;;
21301;SDS011;10810;48.270;9.996;2022-12-18T15:41:16;14.70;;;4.90;;
21301;SDS011;10810;48.270;9.996;2022-12-18T15:53:43;15.77;;;5.60;;
21301;SDS011;10810;48.270;9.996;2022-12-18T15:59:58;16.27;;;4.17;;
21301;SDS011;10810;48.270;9.996;2022-12-18T16:04:11;13.80;;;4.93;;
21301;SDS011;10810;48.270;9.996;2022-12-18T16:29:56;13.37;;;4.70;;
21301;SDS011;10810;48.270;9.996;2022-12-18T16:32:44;15.87;;;5.33;;
